Ust'-Ilimsk, Russia
Current Conditions -  °F | °C
As of 8:30 PM on Saturday 20 Dec 2014 (Local Time) from UIBB Reporting Station
Broken Clouds Broken Clouds  
Wind Chill:   Ceiling: 20000
Heat Index: 19°   Visibility: 3mi
Dew Point: 12°   Wind: 11mph
Humidity: 74%   Direction: 250°WSW
Pressure: 30.21"   Gusts: NA
Location:  58°N, 102.66°E
Report Text: UIBB 201230Z 25005MPS P5000 SCT100 BKN200 M07/M11 Q1023 NOSIGRMK QFE724/0965 30420340
Loading
Personal Weather Stations






























Interactive Weather Map New forecast layout! Learn more

10-Day Weather Forecast

Advertisements
Track Severe Weather on mobile